Nearby METAR Reports

 

YCOM - Cooma Snowy Mtns, Australia
Distance from station: NE 158km
Updated: 16/04/2021 20:00
Overcast
Overcast
 Wind from NNE
Wind: NNE 11 km/h
Temperature: 7°C
Wind Chill: 5°C
Dew Point: 4°C
Humidity: 81%
Barometer: 1023 hPa
Clouds: Overcast
Visibility: 10 km
Cloud details: Overcast 1341 m
Overcast 1554 m
2021/04/16 10:00 YCOM 161000Z AUTO 02006KT 9999 // OVC044 OVC051 07/04 Q1023
YMAY - Albury Airport, Australia
Distance from station: NNW 165km
Updated: 16/04/2021 20:00
Clear
Clear
 Wind from calm
Wind: Calm
Temperature: 12°C
Dew Point: 6°C
Humidity: 67%
Barometer: 1021 hPa
Clouds: Clear
Visibility: 10 km
2021/04/16 10:00 YMAY 161000Z AUTO 00000KT 9999 // NCD 12/06 Q1021
 
YWGT - Wangaratta Airport, Australia
Distance from station: NW 172km
Updated: 16/04/2021 20:00
Clear
Clear
 Wind from WSW
Wind: WSW 15 km/h
Temperature: 12°C
Dew Point: 5°C
Humidity: 63%
Barometer: 1022 hPa
Clouds: Clear
Visibility: 10 km
2021/04/16 10:00 YWGT 161000Z AUTO 25008KT 9999 // NCD 12/05 Q1022
YMER - Merimbula Airport, Australia
Distance from station: ENE 192km
Updated: 16/04/2021 20:00
Clear
Clear
 Wind from NW
Wind: NW 6 km/h
Temperature: 10°C
Dew Point: 9°C
Humidity: 94%
Barometer: 1024 hPa
Clouds: Clear
Visibility: 10 km
2021/04/16 10:00 YMER 161000Z AUTO 31003KT 9999 // NCD 10/09 Q1024